createdAt,value
2018-11-29T00:03:16.951Z,22.4
2018-11-29T00:13:16.160Z,22.4
2018-11-29T00:23:15.360Z,22.3
2018-11-29T00:33:14.576Z,22.2
2018-11-29T00:43:13.783Z,22.4
2018-11-29T00:53:12.991Z,22.4
2018-11-29T01:03:12.208Z,22.4
2018-11-29T01:13:11.417Z,22.3
2018-11-29T01:23:10.628Z,22.3
2018-11-29T01:33:09.834Z,22.4
2018-11-29T01:43:09.046Z,22.3
2018-11-29T01:53:08.250Z,22.3
2018-11-29T02:03:07.467Z,22.4
2018-11-29T02:13:06.669Z,22.3
2018-11-29T02:23:05.876Z,22.3
2018-11-29T02:33:05.079Z,22.4
2018-11-29T02:43:04.292Z,22.4
2018-11-29T02:53:03.496Z,22.3
2018-11-29T03:03:02.710Z,22.3
2018-11-29T03:13:01.918Z,22.3
2018-11-29T03:23:01.123Z,22.3
2018-11-29T03:33:00.344Z,22.3
2018-11-29T03:42:59.538Z,22.3
2018-11-29T03:52:58.744Z,22.3
2018-11-29T04:02:57.956Z,22.2
2018-11-29T04:12:57.168Z,22.4
2018-11-29T04:22:56.382Z,22.3
2018-11-29T04:32:55.595Z,22.2
2018-11-29T04:42:54.801Z,22.1
2018-11-29T04:52:54.012Z,22
2018-11-29T05:02:53.232Z,22.3
2018-11-29T05:12:52.446Z,22.1
2018-11-29T05:22:51.667Z,21.9
2018-11-29T05:32:50.879Z,21.9
2018-11-29T05:42:50.091Z,21.9
2018-11-29T05:52:49.304Z,22.3
2018-11-29T06:02:48.513Z,22.3
2018-11-29T06:12:47.732Z,22.1
2018-11-29T06:22:46.944Z,21.9
2018-11-29T06:32:46.207Z,21.9
2018-11-29T06:42:45.364Z,21.8
2018-11-29T06:52:44.575Z,21.8
2018-11-29T07:02:43.775Z,22.1
2018-11-29T07:12:42.990Z,22.3
2018-11-29T07:22:42.200Z,22.1
2018-11-29T07:32:41.416Z,22.1
2018-11-29T07:42:40.623Z,22.3
2018-11-29T07:52:39.827Z,22.4
2018-11-29T08:02:39.049Z,22.2
2018-11-29T08:12:38.259Z,22.1
2018-11-29T08:22:37.463Z,21.9
2018-11-29T08:32:36.675Z,21.9
2018-11-29T08:42:35.886Z,22.3
2018-11-29T08:52:35.094Z,22.2
2018-11-29T09:02:34.316Z,21.9
2018-11-29T09:12:33.616Z,21.8
2018-11-29T09:22:32.726Z,21.9
2018-11-29T09:32:31.942Z,22.5
2018-11-29T09:42:31.157Z,22.6
2018-11-29T09:52:30.360Z,22.1
2018-11-29T10:02:29.560Z,22.6
2018-11-29T10:12:28.774Z,22.6
2018-11-29T10:22:27.989Z,22.2
2018-11-29T10:32:27.195Z,22.5
2018-11-29T10:42:26.406Z,22.8
2018-11-29T10:52:25.617Z,22.9
2018-11-29T11:02:24.834Z,22.5
2018-11-29T11:12:24.038Z,22.7
2018-11-29T11:22:23.250Z,22.9
2018-11-29T11:32:22.469Z,22.9
2018-11-29T11:42:21.684Z,22.5
2018-11-29T11:52:20.894Z,22.6
2018-11-29T12:02:20.099Z,22.9
2018-11-29T12:12:19.319Z,22.6
2018-11-29T12:22:18.516Z,22.6
2018-11-29T12:32:17.729Z,22.9
2018-11-29T12:42:17.037Z,22.5
2018-11-29T12:52:16.144Z,22.3
2018-11-29T13:02:15.359Z,22.9
2018-11-29T13:12:14.561Z,22.6
2018-11-29T13:22:13.766Z,22.6
2018-11-29T13:32:12.976Z,22.4
2018-11-29T13:42:12.174Z,22.1
2018-11-29T13:52:11.451Z,23
2018-11-29T14:02:10.609Z,22.6
2018-11-29T14:12:09.817Z,22.4
2018-11-29T14:22:09.023Z,22.8
2018-11-29T14:32:08.328Z,22.8
2018-11-29T14:42:07.462Z,22.4
2018-11-29T14:52:08.050Z,22.2
2018-11-29T15:02:05.865Z,22.5
2018-11-29T15:12:05.072Z,22.5
2018-11-29T15:22:04.282Z,22.8
2018-11-29T15:32:03.491Z,22.9
2018-11-29T15:42:02.710Z,22.8
2018-11-29T15:52:01.909Z,22.4
2018-11-29T16:02:01.123Z,22.3
2018-11-29T16:12:00.348Z,22.3
2018-11-29T16:21:59.541Z,22.6
2018-11-29T16:31:58.747Z,22.8
2018-11-29T16:41:57.960Z,22.4
2018-11-29T16:51:57.198Z,22.6
2018-11-29T17:01:56.387Z,22.8
2018-11-29T17:12:00.069Z,22.9
2018-11-29T17:21:54.815Z,22.9
2018-11-29T17:31:54.031Z,22.8
2018-11-29T17:41:53.277Z,22.9
2018-11-29T17:51:53.751Z,22.8
2018-11-29T18:01:51.706Z,22.5
2018-11-29T18:11:50.880Z,22.8
2018-11-29T18:21:50.079Z,22.7
2018-11-29T18:31:49.294Z,22.7
2018-11-29T18:41:48.518Z,22.5
2018-11-29T18:51:47.722Z,22.6
2018-11-29T19:01:46.933Z,22.6
2018-11-29T19:11:46.191Z,22.7
2018-11-29T19:21:45.347Z,22.4
2018-11-29T19:31:44.578Z,22.6
2018-11-29T19:41:43.769Z,22.7
2018-11-29T19:51:42.991Z,22.6
2018-11-29T20:01:42.179Z,22.7
2018-11-29T20:11:41.397Z,22.5
2018-11-29T20:21:40.598Z,22.5
2018-11-29T20:31:39.823Z,22.5
2018-11-29T20:41:39.016Z,22.4
2018-11-29T20:51:38.231Z,22.4
2018-11-29T21:01:37.431Z,22.3
2018-11-29T21:11:36.640Z,22.3
2018-11-29T21:21:35.846Z,22.3
2018-11-29T21:31:35.063Z,22.1
2018-11-29T21:41:34.312Z,22
2018-11-29T21:51:33.474Z,21.9
2018-11-29T22:01:32.708Z,21.9
2018-11-29T22:11:31.877Z,21.9
2018-11-29T22:21:31.086Z,22.1
2018-11-29T22:31:30.308Z,21.9
2018-11-29T22:41:29.508Z,21.8
2018-11-29T22:51:28.714Z,21.8
2018-11-29T23:01:27.936Z,22.1
2018-11-29T23:11:27.138Z,22
2018-11-29T23:21:26.348Z,21.8
2018-11-29T23:31:25.569Z,21.7
2018-11-29T23:41:24.814Z,21.6
2018-11-29T23:51:23.966Z,21.8
